Weather at Camilo Daza International Airport

Public forecast

Using degrees Celsius for public forecast. Weather courtesy of forecast.io.

Current aviation weather report (METAR) for Camilo Daza International Airport

2024/06/20 14:00 (retrieved 44 minutes ago)

SKCC 201400Z VRB03KT 9999 SCT022 BKN070 27/23 Q1014

Aviation forecast (TAF) for Camilo Daza International Airport

2024/06/20 12:00 (retrieved 3 hours ago)

TAF SKCC 201030Z 2012/2112 VRB02KT 9999 SCT015 BKN080 TEMPO 2012/2015 3000 BCFG DZ SCT017 BKN080 BECMG 2014/2016 16017KT SCT023 BECMG 2100/2102 VRB02KT TX35/2019Z TN24/2110Z